createdAt,value
2023-03-22T00:00:30.214Z,16.10
2023-03-22T00:05:58.638Z,16.30
2023-03-22T00:11:03.035Z,15.80
2023-03-22T00:16:07.168Z,16.40
2023-03-22T00:21:16.158Z,15.30
2023-03-22T00:31:22.364Z,17.60
2023-03-22T00:36:26.350Z,16.70
2023-03-22T00:41:29.464Z,20.80
2023-03-22T00:46:32.553Z,18.70
2023-03-22T00:51:35.791Z,17.90
2023-03-22T00:56:38.814Z,17.40
2023-03-22T01:01:41.883Z,12.10
2023-03-22T01:06:45.095Z,16.10
2023-03-22T01:11:48.194Z,16.40
2023-03-22T01:16:51.877Z,17.10
2023-03-22T01:21:55.736Z,16.10
2023-03-22T01:26:58.855Z,17.50
2023-03-22T01:32:02.153Z,17.00
2023-03-22T01:37:05.370Z,12.80
2023-03-22T01:42:14.504Z,14.50
2023-03-22T01:47:17.620Z,13.20
2023-03-22T01:52:20.829Z,12.90
2023-03-22T01:57:24.826Z,12.80
2023-03-22T02:02:31.174Z,9.80
2023-03-22T02:07:34.457Z,14.80
2023-03-22T02:13:27.634Z,15.90
2023-03-22T02:19:21.018Z,13.00
2023-03-22T02:24:30.071Z,13.90
2023-03-22T02:29:48.837Z,14.00
2023-03-22T02:41:01.301Z,11.70
2023-03-22T02:46:23.587Z,12.40
2023-03-22T02:51:46.115Z,14.60
2023-03-22T02:57:00.699Z,11.80
2023-03-22T03:02:05.880Z,16.00
2023-03-22T03:07:14.555Z,15.30
2023-03-22T03:12:25.313Z,12.40
2023-03-22T03:18:05.235Z,12.30
2023-03-22T03:23:28.846Z,13.70
2023-03-22T03:29:06.354Z,12.40
2023-03-22T03:34:27.827Z,11.80
2023-03-22T03:39:37.335Z,11.10
2023-03-22T03:44:41.707Z,13.80
2023-03-22T03:49:44.811Z,16.10
2023-03-22T03:54:48.015Z,15.50
2023-03-22T03:59:51.091Z,14.90
2023-03-22T04:04:54.092Z,15.30
2023-03-22T04:09:57.226Z,12.60
2023-03-22T04:15:00.680Z,14.40
2023-03-22T04:20:06.356Z,12.10
2023-03-22T04:25:13.350Z,13.20
2023-03-22T04:30:19.252Z,12.20
2023-03-22T04:35:23.308Z,16.80
2023-03-22T04:40:27.238Z,20.10
2023-03-22T04:45:32.622Z,32.30
2023-03-22T04:50:35.689Z,27.40
2023-03-22T04:55:39.104Z,21.10
2023-03-22T05:00:42.514Z,17.10
2023-03-22T05:05:57.089Z,14.80
2023-03-22T05:11:08.390Z,15.00
2023-03-22T05:16:12.451Z,13.00
2023-03-22T05:21:22.248Z,10.30
2023-03-22T05:26:27.248Z,15.50
2023-03-22T05:31:30.874Z,14.40
2023-03-22T05:36:36.725Z,15.90
2023-03-22T05:41:39.809Z,20.70
2023-03-22T05:46:42.888Z,16.70
2023-03-22T05:51:46.133Z,13.40
2023-03-22T05:56:49.441Z,13.30
2023-03-22T06:01:52.629Z,15.40
2023-03-22T06:06:56.706Z,17.00
2023-03-22T06:11:59.884Z,15.70
2023-03-22T06:17:03.762Z,18.70
2023-03-22T06:22:06.820Z,30.40
2023-03-22T06:27:10.863Z,22.30
2023-03-22T06:32:13.954Z,18.70
2023-03-22T06:37:17.255Z,18.10
2023-03-22T06:42:20.574Z,19.00
2023-03-22T06:47:25.020Z,16.50
2023-03-22T06:52:28.102Z,15.00
2023-03-22T06:57:31.426Z,18.70
2023-03-22T07:02:34.531Z,18.90
2023-03-22T07:07:38.053Z,15.90
2023-03-22T07:12:41.873Z,18.60
2023-03-22T07:17:45.410Z,16.00
2023-03-22T07:22:51.412Z,23.90
2023-03-22T07:27:54.497Z,27.00
2023-03-22T07:32:57.566Z,18.60
2023-03-22T07:38:01.420Z,12.20
2023-03-22T07:43:04.500Z,15.10
2023-03-22T07:48:11.532Z,17.70
2023-03-22T07:53:15.124Z,19.20
2023-03-22T07:58:18.337Z,28.00
2023-03-22T08:03:22.491Z,27.90
2023-03-22T08:08:26.708Z,22.20
2023-03-22T08:13:30.511Z,21.60
2023-03-22T08:18:33.720Z,19.20
2023-03-22T08:23:41.824Z,18.10
2023-03-22T08:28:45.773Z,22.10
2023-03-22T08:33:49.512Z,21.00
2023-03-22T08:38:53.331Z,25.70
2023-03-22T08:43:56.663Z,29.30
2023-03-22T08:49:01.395Z,30.00
2023-03-22T08:54:05.604Z,25.80
2023-03-22T08:59:10.471Z,24.70
2023-03-22T09:04:14.272Z,21.60
2023-03-22T09:09:17.689Z,20.80
2023-03-22T09:14:21.000Z,21.40
2023-03-22T09:19:24.201Z,23.00
2023-03-22T09:24:27.308Z,23.90
2023-03-22T09:29:31.412Z,23.00
2023-03-22T09:34:34.685Z,22.60
2023-03-22T09:39:38.692Z,26.00
2023-03-22T09:44:46.287Z,25.50
2023-03-22T09:50:01.702Z,25.40
2023-03-22T09:55:20.892Z,28.10
2023-03-22T10:00:53.777Z,22.90
2023-03-22T10:06:29.397Z,29.80
2023-03-22T10:11:46.215Z,28.80
2023-03-22T10:16:56.445Z,29.30
2023-03-22T10:22:04.122Z,29.00
2023-03-22T10:27:20.932Z,27.00
2023-03-22T10:32:56.490Z,30.00
2023-03-22T10:38:07.402Z,28.70
2023-03-22T10:43:33.398Z,20.70
2023-03-22T10:48:47.915Z,27.20
2023-03-22T10:53:55.268Z,25.80
2023-03-22T10:58:58.694Z,26.10
2023-03-22T11:04:17.492Z,25.10
2023-03-22T11:09:24.558Z,25.70
2023-03-22T11:14:36.903Z,24.30
2023-03-22T11:19:52.074Z,20.60
2023-03-22T11:24:57.166Z,24.00
2023-03-22T11:30:23.923Z,22.20
2023-03-22T11:35:29.770Z,26.20
2023-03-22T11:40:37.062Z,25.50
2023-03-22T11:45:44.398Z,24.90
2023-03-22T11:50:49.073Z,26.00
2023-03-22T11:55:57.373Z,24.40
2023-03-22T12:01:04.072Z,22.40
2023-03-22T12:06:26.692Z,25.20
2023-03-22T12:11:39.000Z,23.50
2023-03-22T12:16:56.445Z,22.60
2023-03-22T12:22:00.381Z,23.50
2023-03-22T12:27:27.383Z,23.50
2023-03-22T12:32:38.756Z,20.00
2023-03-22T12:37:48.176Z,22.60
2023-03-22T12:43:24.100Z,23.70
2023-03-22T12:48:33.570Z,10.80
2023-03-22T12:53:52.567Z,22.40
2023-03-22T12:59:03.704Z,23.80
2023-03-22T13:04:26.057Z,20.70
2023-03-22T13:09:50.465Z,23.10
2023-03-22T13:15:13.878Z,23.70
2023-03-22T13:20:20.328Z,21.80
2023-03-22T13:25:39.800Z,21.80
2023-03-22T13:30:59.019Z,20.00
2023-03-22T13:36:32.212Z,24.00
2023-03-22T13:41:36.766Z,22.10
2023-03-22T13:46:39.941Z,24.70
2023-03-22T13:51:44.951Z,25.20
2023-03-22T13:56:56.756Z,26.60
2023-03-22T14:02:22.491Z,24.20
2023-03-22T14:07:40.399Z,25.30
2023-03-22T14:13:25.733Z,23.20
2023-03-22T14:18:32.810Z,22.30
